Etoile — ETOILE — position and weather

sailwx.info

Track history (hours):
 
Tides and Currents Weather Stations Pressure Air Temp Water Temp Dewpoint Dewpoint Depression Visibility Wind Speed Wind Dir Waves Ship Positions

Etoile

Last reported at 2014-Sep-07 17:30 UTC. Time now 2014-Sep-18 01:41 UTC.
Position N 41°20' W 071°55'.
Warning: this ship's position is 10 days out of date.

Length 17 m.

Type: Pleasure craft. MMSI: 367485880.

Date/timePositionNaut miles runAvg speedWind from/ knotsBaromVisibWave heightAir tempDewpointWater temp
2014-Sep-07 17:30N 41°20' W 071°55'3 3.7
2014-Sep-07 16:33N 41°18' W 071°51'6 5.6
2014-Sep-07 15:33N 41°15' W 071°45'6 6.0
2014-Sep-07 14:34N 41°13' W 071°37'2 0.1
2014-Sep-06 17:17N 41°11' W 071°35'1 0.7
2014-Sep-06 16:33N 41°12' W 071°35'8 8.0
2014-Sep-06 15:33N 41°16' W 071°45'5 5.5
2014-Sep-06 14:34N 41°18' W 071°51'  
2014-Sep-01 20:20N 41°20' W 071°55'3 3.5
2014-Sep-01 19:33N 41°18' W 071°52'4 4.4
2014-Sep-01 18:33N 41°18' W 071°47'4 4.4
2014-Sep-01 17:33N 41°19' W 071°41'5 5.4
2014-Sep-01 16:33N 41°20' W 071°34'6 5.8
2014-Sep-01 15:33N 41°22' W 071°27'6 5.8
2014-Sep-01 14:33N 41°28' W 071°25'3 0.1
2014-Aug-30 21:20N 41°25' W 071°25'3 4.4
2014-Aug-30 20:32N 41°22' W 071°28'6 6.0
2014-Aug-30 19:33N 41°19' W 071°34'6 5.8
2014-Aug-30 18:33N 41°18' W 071°42'6 6.1
2014-Aug-30 17:30N 41°18' W 071°51'4 4.0
2014-Aug-30 16:32N 41°20' W 071°55'  
Track history (hours):
 
Tides and Currents Weather Stations Pressure Air Temp Water Temp Dewpoint Dewpoint Depression Visibility Wind Speed Wind Dir Waves Ship Positions

Etoile

Last reported at 2014-Sep-07 17:30 UTC. Time now 2014-Sep-18 01:41 UTC.
Position N 41°20' W 071°55'.
Warning: this ship's position is 10 days out of date.

Length 17 m.

Type: Pleasure craft. MMSI: 367485880.

Date/timePositionNaut miles runAvg speedWind from/ knotsBaromVisibWave heightAir tempDewpointWater temp
2014-Sep-07 17:30N 41°20' W 071°55'3 3.7
2014-Sep-07 16:33N 41°18' W 071°51'6 5.6
2014-Sep-07 15:33N 41°15' W 071°45'6 6.0
2014-Sep-07 14:34N 41°13' W 071°37'2 0.1
2014-Sep-06 17:17N 41°11' W 071°35'1 0.7
2014-Sep-06 16:33N 41°12' W 071°35'8 8.0
2014-Sep-06 15:33N 41°16' W 071°45'5 5.5
2014-Sep-06 14:34N 41°18' W 071°51'  
2014-Sep-01 20:20N 41°20' W 071°55'3 3.5
2014-Sep-01 19:33N 41°18' W 071°52'4 4.4
2014-Sep-01 18:33N 41°18' W 071°47'4 4.4
2014-Sep-01 17:33N 41°19' W 071°41'5 5.4
2014-Sep-01 16:33N 41°20' W 071°34'6 5.8
2014-Sep-01 15:33N 41°22' W 071°27'6 5.8
2014-Sep-01 14:33N 41°28' W 071°25'3 0.1
2014-Aug-30 21:20N 41°25' W 071°25'3 4.4
2014-Aug-30 20:32N 41°22' W 071°28'6 6.0
2014-Aug-30 19:33N 41°19' W 071°34'6 5.8
2014-Aug-30 18:33N 41°18' W 071°42'6 6.1
2014-Aug-30 17:30N 41°18' W 071°51'4 4.0
2014-Aug-30 16:32N 41°20' W 071°55'  

Dump ship's entire track history